Observation data for Goodlett on 11/09/2019      Previous  Date       Current Mesonet Observations  Soil Data  Daily Summary Page  Observations in Plain Language
KGDS 090600Z 22007KT 02/01 A3026 RMK A01 T00200006  RH  092%=      5-min Rain = 0
KGDS 090605Z 22007KT 02/01 A3026 RMK A01 T00200006  RH  092%=      5-min Rain = 0
KGDS 090610Z 22007KT 02/01 A3026 RMK A01 T00200007  RH  092%=      5-min Rain = 0
KGDS 090615Z 22006KT 02/01 A3026 RMK A01 T00210007  RH  092%=      5-min Rain = 0
KGDS 090620Z 22006KT 02/01 A3026 RMK A01 T00200006  RH  092%=      5-min Rain = 0
KGDS 090625Z 22006KT 02/01 A3025 RMK A01 T00180005  RH  092%=      5-min Rain = 0
KGDS 090630Z 22006KT 02/01 A3025 RMK A01 T00170005  RH  093%=      5-min Rain = 0
KGDS 090635Z 22006KT 02/01 A3025 RMK A01 T00170005  RH  093%=      5-min Rain = 0
KGDS 090640Z 22007KT 02/01 A3025 RMK A01 T00170005  RH  093%=      5-min Rain = 0
KGDS 090645Z 22006KT 02/01 A3025 RMK A01 T00170006  RH  094%=      5-min Rain = 0
KGDS 090650Z 22007KT 02/01 A3025 RMK A01 T00170006  RH  094%=      5-min Rain = 0
KGDS 090655Z 22006KT 02/01 A3025 RMK A01 T00170006  RH  094%=      5-min Rain = 0
KGDS 090700Z 22007KT 02/01 A3025 RMK A01 T00170006  RH  094%=      5-min Rain = 0
KGDS 090705Z 22006KT 02/01 A3025 RMK A01 T00170007  RH  094%=      5-min Rain = 0
KGDS 090710Z 22007KT 02/01 A3024 RMK A01 T00160006  RH  094%=      5-min Rain = 0
KGDS 090715Z 22007KT 02/01 A3024 RMK A01 T00160006  RH  094%=      5-min Rain = 0
KGDS 090720Z 22007KT 02/01 A3024 RMK A01 T00150006  RH  095%=      5-min Rain = 0
KGDS 090725Z 21008KT 02/01 A3024 RMK A01 T00160007  RH  095%=      5-min Rain = 0
KGDS 090730Z 21008KT 02/01 A3024 RMK A01 T00160007  RH  095%=      5-min Rain = 0
KGDS 090735Z 21007KT 02/01 A3024 RMK A01 T00180009  RH  095%=      5-min Rain = 0
KGDS 090740Z 22008KT 02/01 A3023 RMK A01 T00160007  RH  095%=      5-min Rain = 0
KGDS 090745Z 21007KT 02/01 A3023 RMK A01 T00160008  RH  095%=      5-min Rain = 0
KGDS 090750Z 22007KT 02/01 A3024 RMK A01 T00180010  RH  096%=      5-min Rain = 0
KGDS 090755Z 22007KT 02/01 A3024 RMK A01 T00190011  RH  096%=      5-min Rain = 0
KGDS 090800Z 22006KT 02/01 A3023 RMK A01 T00200012  RH  095%=      5-min Rain = 0
KGDS 090805Z 22006KT 02/01 A3023 RMK A01 T00210012  RH  095%=      5-min Rain = 0
KGDS 090810Z 22006KT 02/01 A3023 RMK A01 T00220013  RH  095%=      5-min Rain = 0
KGDS 090815Z 22006KT 02/01 A3023 RMK A01 T00230014  RH  095%=      5-min Rain = 0
KGDS 090820Z 23006KT 02/01 A3023 RMK A01 T00230014  RH  095%=      5-min Rain = 0
KGDS 090825Z 22006KT 02/01 A3022 RMK A01 T00230014  RH  095%=      5-min Rain = 0
KGDS 090830Z 22006KT 02/01 A3022 RMK A01 T00220013  RH  095%=      5-min Rain = 0
KGDS 090835Z 22007KT 02/01 A3022 RMK A01 T00200011  RH  095%=      5-min Rain = 0
KGDS 090840Z 22007KT 02/01 A3022 RMK A01 T00200012  RH  096%=      5-min Rain = 0
KGDS 090845Z 22007KT 02/01 A3022 RMK A01 T00200013  RH  096%=      5-min Rain = 0
KGDS 090850Z 22007KT 02/01 A3022 RMK A01 T00200012  RH  096%=      5-min Rain = 0
KGDS 090855Z 22007KT 02/01 A3021 RMK A01 T00190011  RH  096%=      5-min Rain = 0
KGDS 090900Z 22007KT 02/01 A3021 RMK A01 T00180011  RH  096%=      5-min Rain = 0
KGDS 090905Z 22006KT 02/01 A3021 RMK A01 T00170010  RH  096%=      5-min Rain = 0
KGDS 090910Z 22006KT 02/01 A302 RMK A01 T00170011  RH  097%=      5-min Rain = 0
KGDS 090915Z 23006KT 02/01 A302 RMK A01 T00170011  RH  097%=      5-min Rain = 0
KGDS 090920Z 22007KT 02/01 A302 RMK A01 T00170011  RH  097%=      5-min Rain = 0
KGDS 090925Z 22008KT 02/01 A302 RMK A01 T00180012  RH  097%=      5-min Rain = 0
KGDS 090930Z 22007KT 02/01 A302 RMK A01 T00180013  RH  097%=      5-min Rain = 0
KGDS 090935Z 22006KT 02/01 A302 RMK A01 T00190014  RH  097%=      5-min Rain = 0
KGDS 090940Z 23005KT 02/01 A302 RMK A01 T00200014  RH  097%=      5-min Rain = 0
KGDS 090945Z 23005KT 02/01 A302 RMK A01 T00190013  RH  097%=      5-min Rain = 0
KGDS 090950Z 23005KT 02/01 A302 RMK A01 T00190013  RH  097%=      5-min Rain = 0
KGDS 090955Z 23005KT 02/01 A302 RMK A01 T00200014  RH  097%=      5-min Rain = 0
KGDS 091000Z 23007KT 02/01 A3019 RMK A01 T00200014  RH  097%=      5-min Rain = 0
KGDS 091005Z 23008KT 02/01 A3019 RMK A01 T00190013  RH  097%=      5-min Rain = 0
KGDS 091010Z 23008KT 02/01 A3019 RMK A01 T00180012  RH  098%=      5-min Rain = 0
KGDS 091015Z 23007KT 02/01 A3019 RMK A01 T00170012  RH  098%=      5-min Rain = 0
KGDS 091020Z 23007KT 02/01 A3019 RMK A01 T00170012  RH  098%=      5-min Rain = 0
KGDS 091025Z 23007KT 02/01 A3019 RMK A01 T00170012  RH  098%=      5-min Rain = 0
KGDS 091030Z 23007KT 02/01 A3019 RMK A01 T00160011  RH  098%=      5-min Rain = 0
KGDS 091035Z 24006KT 02/01 A3019 RMK A01 T00150010  RH  098%=      5-min Rain = 0
KGDS 091040Z 23007KT 02/01 A3019 RMK A01 T00150010  RH  098%=      5-min Rain = 0
KGDS 091045Z 23007KT 02/01 A3018 RMK A01 T00150011  RH  098%=      5-min Rain = 0
KGDS 091050Z 23007KT 02/01 A3018 RMK A01 T00160011  RH  098%=      5-min Rain = 0
KGDS 091055Z 23007KT 02/01 A3018 RMK A01 T00170013  RH  098%=      5-min Rain = 0
KGDS 091100Z 23007KT 02/01 A3018 RMK A01 T00180014  RH  098%=      5-min Rain = 0
KGDS 091105Z 23007KT 02/01 A3019 RMK A01 T00180013  RH  098%=      5-min Rain = 0
KGDS 091110Z 23006KT 02/01 A3019 RMK A01 T00180014  RH  098%=      5-min Rain = 0
KGDS 091115Z 23006KT 02/02 A3018 RMK A01 T00190015  RH  098%=      5-min Rain = 0
KGDS 091120Z 23006KT 02/01 A3018 RMK A01 T00180014  RH  098%=      5-min Rain = 0
KGDS 091125Z 23006KT 02/01 A3018 RMK A01 T00180014  RH  098%=      5-min Rain = 0
KGDS 091130Z 22006KT 02/01 A3018 RMK A01 T00160012  RH  098%=      5-min Rain = 0
KGDS 091135Z 22007KT 02/01 A3018 RMK A01 T00150011  RH  098%=      5-min Rain = 0
KGDS 091140Z 22007KT 01/01 A3018 RMK A01 T00140010  RH  098%=      5-min Rain = 0
KGDS 091145Z 22007KT 01/01 A3018 RMK A01 T00130009  RH  098%=      5-min Rain = 0
KGDS 091150Z 23006KT 01/01 A3018 RMK A01 T00120008  RH  099%=      5-min Rain = 0
KGDS 091155Z 23007KT 01/01 A3018 RMK A01 T00100006  RH  099%=      5-min Rain = 0
KGDS 091200Z 23007KT 01/01 A3018 RMK A01 T00090005  RH  099%=      5-min Rain = 0
KGDS 091205Z 23008KT 01/01 A3018 RMK A01 T00100006  RH  099%=      5-min Rain = 0
KGDS 091210Z 23006KT 01/01 A3018 RMK A01 T00110008  RH  099%=      5-min Rain = 0
KGDS 091215Z 24006KT 01/01 A3019 RMK A01 T00100007  RH  099%=      5-min Rain = 0
KGDS 091220Z 24006KT 01/01 A3019 RMK A01 T00100006  RH  099%=      5-min Rain = 0
KGDS 091225Z 25005KT 01/01 A3019 RMK A01 T00100007  RH  099%=      5-min Rain = 0
KGDS 091230Z 26003KT 01/01 A3019 RMK A01 T00120008  RH  099%=      5-min Rain = 0
KGDS 091235Z 28003KT 02/01 A302 RMK A01 T00160013  RH  099%=      5-min Rain = 0
KGDS 091240Z 28003KT 02/01 A302 RMK A01 T00170014  RH  099%=      5-min Rain = 0
KGDS 091245Z 26004KT 02/02 A302 RMK A01 T00180015  RH  099%=      5-min Rain = 0
KGDS 091250Z 25005KT 02/02 A302 RMK A01 T00190016  RH  099%=      5-min Rain = 0
KGDS 091255Z 25005KT 02/02 A302 RMK A01 T00190015  RH  099%=      5-min Rain = 0
KGDS 091300Z 26005KT 02/01 A302 RMK A01 T00180014  RH  099%=      5-min Rain = 0
KGDS 091305Z 25005KT 02/02 A302 RMK A01 T00190016  RH  099%=      5-min Rain = 0
KGDS 091310Z 24007KT 02/02 A3019 RMK A01 T00180015  RH  099%=      5-min Rain = 0
KGDS 091315Z 23007KT 01/01 A3019 RMK A01 T00140010  RH  099%=      5-min Rain = 0
KGDS 091320Z 23007KT 01/01 A3019 RMK A01 T00120009  RH  099%=      5-min Rain = 0
KGDS 091325Z 23006KT 01/01 A3019 RMK A01 T00120009  RH  099%=      5-min Rain = 0
KGDS 091330Z 23006KT 01/01 A3019 RMK A01 T00130010  RH  099%=      5-min Rain = 0
KGDS 091335Z 23007KT 02/01 A3019 RMK A01 T00150011  RH  099%=      5-min Rain = 0
KGDS 091340Z 23007KT 02/01 A3019 RMK A01 T00170013  RH  099%=      5-min Rain = 0
KGDS 091345Z 22007KT 02/01 A3019 RMK A01 T00170014  RH  099%=      5-min Rain = 0
KGDS 091350Z 22006KT 02/02 A3019 RMK A01 T00180015  RH  099%=      5-min Rain = 0
KGDS 091355Z 23006KT 02/02 A3019 RMK A01 T00210018  RH  099%=      5-min Rain = 0
KGDS 091400Z 24005KT 03/02 A302 RMK A01 T00260022  RH  099%=      5-min Rain = 0
KGDS 091405Z 24005KT 03/03 A302 RMK A01 T00310028  RH  099%=      5-min Rain = 0
KGDS 091410Z 24005KT 04/03 A302 RMK A01 T00370033  RH  099%=      5-min Rain = 0
KGDS 091415Z 24005KT 04/04 A302 RMK A01 T00430039  RH  099%=      5-min Rain = 0
KGDS 091420Z 24005KT 05/04 A302 RMK A01 T00470042  RH  099%=      5-min Rain = 0
KGDS 091425Z 25004KT 05/04 A3021 RMK A01 T00490044  RH  098%=      5-min Rain = 0
KGDS 091430Z 24004KT 05/05 A3021 RMK A01 T00520046  RH  098%=      5-min Rain = 0
KGDS 091435Z 23005KT 05/05 A3021 RMK A01 T00540047  RH  097%=      5-min Rain = 0
KGDS 091440Z 24006KT 06/05 A3021 RMK A01 T00570049  RH  097%=      5-min Rain = 0
KGDS 091445Z 23006KT 06/05 A3021 RMK A01 T00580049  RH  096%=      5-min Rain = 0
KGDS 091450Z 24006KT 06/05 A3021 RMK A01 T00600049  RH  095%=      5-min Rain = 0
KGDS 091455Z 24006KT 06/05 A3021 RMK A01 T00630050  RH  094%=      5-min Rain = 0
KGDS 091500Z 24005KT 07/05 A3021 RMK A01 T00660052  RH  093%=      5-min Rain = 0
KGDS 091505Z 23004KT 07/05 A3021 RMK A01 T00700054  RH  092%=      5-min Rain = 0
KGDS 091510Z 22005KT 07/06 A3021 RMK A01 T00740055  RH  090%=      5-min Rain = 0
KGDS 091515Z 23005KT 08/06 A3021 RMK A01 T00770057  RH  089%=      5-min Rain = 0
KGDS 091520Z 23004KT 08/06 A3021 RMK A01 T00810059  RH  087%=      5-min Rain = 0
KGDS 091525Z 23004KT 09/06 A3021 RMK A01 T00850059  RH  086%=      5-min Rain = 0
KGDS 091530Z 23004KT 09/06 A3021 RMK A01 T00890060  RH  084%=      5-min Rain = 0
KGDS 091535Z 23004KT 09/06 A3021 RMK A01 T00940063  RH  083%=      5-min Rain = 0
KGDS 091540Z 23005KT 10/06 A302 RMK A01 T00970063  RH  081%=      5-min Rain = 0
KGDS 091545Z 23004KT 10/06 A302 RMK A01 T01000064  RH  080%=      5-min Rain = 0
KGDS 091550Z 24004KT 10/06 A3021 RMK A01 T01010063  RH  079%=      5-min Rain = 0
KGDS 091555Z 24004KT 10/06 A302 RMK A01 T01040064  RH  078%=      5-min Rain = 0
KGDS 091600Z 23005KT 11/07 A302 RMK A01 T01070065  RH  077%=      5-min Rain = 0
KGDS 091605Z 23004KT 11/07 A302 RMK A01 T01100066  RH  076%=      5-min Rain = 0
KGDS 091610Z 24005KT 11/07 A302 RMK A01 T01130065  RH  074%=      5-min Rain = 0
KGDS 091615Z 23005KT 12/07 A302 RMK A01 T01160066  RH  073%=      5-min Rain = 0
KGDS 091620Z 22004KT 12/07 A302 RMK A01 T01180066  RH  072%=      5-min Rain = 0
KGDS 091625Z 24004KT 12/07 A302 RMK A01 T01210066  RH  071%=      5-min Rain = 0
KGDS 091630Z 24004KT 12/07 A302 RMK A01 T01230065  RH  069%=      5-min Rain = 0
KGDS 091635Z 22002KT 13/07 A302 RMK A01 T01250065  RH  068%=      5-min Rain = 0
KGDS 091640Z 23004KT 13/07 A302 RMK A01 T01290067  RH  068%=      5-min Rain = 0
KGDS 091645Z 23006KT 13/07 A302 RMK A01 T01320066  RH  066%=      5-min Rain = 0
KGDS 091650Z 24005KT 14/07 A302 RMK A01 T01350067  RH  065%=      5-min Rain = 0
KGDS 091655Z 24005KT 14/07 A302 RMK A01 T01370067  RH  064%=      5-min Rain = 0
KGDS 091700Z 24005KT 14/07 A302 RMK A01 T01440069  RH  062%=      5-min Rain = 0
KGDS 091705Z 25004KT 15/06 A302 RMK A01 T01450064  RH  060%=      5-min Rain = 0
KGDS 091710Z 25003KT 15/07 A302 RMK A01 T01460065  RH  059%=      5-min Rain = 0
KGDS 091715Z 24003KT 15/07 A302 RMK A01 T01490067  RH  059%=      5-min Rain = 0
KGDS 091720Z 21003KT 15/07 A302 RMK A01 T01510068  RH  059%=      5-min Rain = 0
KGDS 091725Z 21002KT 15/07 A3019 RMK A01 T01520067  RH  058%=      5-min Rain = 0
KGDS 091730Z 23002KT 16/07 A3019 RMK A01 T01580067  RH  056%=      5-min Rain = 0
KGDS 091735Z 19002KT 16/07 A3019 RMK A01 T01610067  RH  055%=      5-min Rain = 0
KGDS 091740Z 18001KT 17/07 A3019 RMK A01 T01650070  RH  055%=      5-min Rain = 0
KGDS 091745Z 18003KT 17/07 A3018 RMK A01 T01670070  RH  054%=      5-min Rain = 0
KGDS 091750Z 21004KT 17/07 A3018 RMK A01 T01710072  RH  054%=      5-min Rain = 0
KGDS 091755Z 20004KT 17/07 A3017 RMK A01 T01720072  RH  053%=      5-min Rain = 0
KGDS 091800Z 21005KT 18/07 A3017 RMK A01 T01760073  RH  052%=      5-min Rain = 0
KGDS 091805Z 21006KT 17/07 A3017 RMK A01 T01740070  RH  052%=      5-min Rain = 0
KGDS 091810Z 19007KT 18/07 A3016 RMK A01 T01790072  RH  051%=      5-min Rain = 0
KGDS 091815Z 19006KT 18/07 A3016 RMK A01 T01810071  RH  050%=      5-min Rain = 0
KGDS 091820Z 20006KT 18/07 A3015 RMK A01 T01840072  RH  049%=      5-min Rain = 0
KGDS 091825Z 20008KT 19/07 A3015 RMK A01 T01870071  RH  048%=      5-min Rain = 0
KGDS 091830Z 20007KT 19/07 A3014 RMK A01 T01890071  RH  047%=      5-min Rain = 0
KGDS 091835Z 21009KT 19/07 A3014 RMK A01 T01900069  RH  046%=      5-min Rain = 0
KGDS 091840Z 21008KT 19/07 A3014 RMK A01 T01940072  RH  046%=      5-min Rain = 0
KGDS 091845Z 20007KT 20/07 A3013 RMK A01 T01970074  RH  046%=      5-min Rain = 0
KGDS 091850Z 20008KT 20/07 A3013 RMK A01 T02000073  RH  045%=      5-min Rain = 0
KGDS 091855Z 20008KT 20/08 A3012 RMK A01 T02010076  RH  046%=      5-min Rain = 0
KGDS 091900Z 21008KT 21/08 A3012 RMK A01 T02050075  RH  044%=      5-min Rain = 0
KGDS 091905Z 21007KT 21/08 A3012 RMK A01 T02060076  RH  044%=      5-min Rain = 0
KGDS 091910Z 20008KT 21/08 A3011 RMK A01 T02110077  RH  043%=      5-min Rain = 0
KGDS 091915Z 21007KT 21/08 A3011 RMK A01 T02140076  RH  042%=      5-min Rain = 0
KGDS 091920Z 20008KT 21/07 A3011 RMK A01 T02140074  RH  041%=      5-min Rain = 0
KGDS 091925Z 21008KT 22/08 A3011 RMK A01 T02170075  RH  041%=      5-min Rain = 0
KGDS 091930Z 21008KT 22/07 A3011 RMK A01 T02160074  RH  041%=      5-min Rain = 0
KGDS 091935Z 21008KT 22/07 A3011 RMK A01 T02200072  RH  039%=      5-min Rain = 0
KGDS 091940Z 20008KT 22/07 A301 RMK A01 T02200071  RH  039%=      5-min Rain = 0
KGDS 091945Z 20007KT 22/07 A301 RMK A01 T02240072  RH  039%=      5-min Rain = 0
KGDS 091950Z 21007KT 22/07 A301 RMK A01 T02240072  RH  039%=      5-min Rain = 0
KGDS 091955Z 22007KT 23/07 A301 RMK A01 T02280070  RH  037%=      5-min Rain = 0
KGDS 092000Z 21008KT 23/07 A3009 RMK A01 T02290065  RH  036%=      5-min Rain = 0
KGDS 092005Z 21006KT 23/07 A3009 RMK A01 T02300065  RH  035%=      5-min Rain = 0
KGDS 092010Z 20006KT 23/07 A3009 RMK A01 T02300068  RH  036%=      5-min Rain = 0
KGDS 092015Z 21008KT 23/07 A3009 RMK A01 T02340066  RH  035%=      5-min Rain = 0
KGDS 092020Z 22008KT 23/06 A3009 RMK A01 T02340064  RH  034%=      5-min Rain = 0
KGDS 092025Z 21006KT 24/06 A3009 RMK A01 T02360062  RH  033%=      5-min Rain = 0
KGDS 092030Z 22007KT 24/06 A3008 RMK A01 T02370060  RH  033%=      5-min Rain = 0
KGDS 092035Z 21005KT 24/06 A3008 RMK A01 T02390064  RH  033%=      5-min Rain = 0
KGDS 092040Z 21005G11KT 24/06 A3008 RMK A01 T02420063  RH  032%=      5-min Rain = 0
KGDS 092045Z 21007KT 24/06 A3008 RMK A01 T02420060  RH  032%=      5-min Rain = 0
KGDS 092050Z 21007KT 24/06 A3007 RMK A01 T02420061  RH  032%=      5-min Rain = 0
KGDS 092055Z 23006KT 24/06 A3007 RMK A01 T02440060  RH  031%=      5-min Rain = 0
KGDS 092100Z 22006G11KT 25/06 A3007 RMK A01 T02470058  RH  030%=      5-min Rain = 0
KGDS 092105Z 20007KT 25/06 A3007 RMK A01 T02470060  RH  031%=      5-min Rain = 0
KGDS 092110Z 23006KT 25/06 A3007 RMK A01 T02480059  RH  030%=      5-min Rain = 0
KGDS 092115Z 19005KT 25/06 A3007 RMK A01 T02480060  RH  031%=      5-min Rain = 0
KGDS 092120Z 18006KT 25/06 A3007 RMK A01 T02470062  RH  031%=      5-min Rain = 0
KGDS 092125Z 18006KT 25/06 A3006 RMK A01 T02490063  RH  031%=      5-min Rain = 0
KGDS 092130Z 20005KT 25/06 A3006 RMK A01 T02500061  RH  030%=      5-min Rain = 0
KGDS 092135Z 20007KT 25/06 A3006 RMK A01 T02510061  RH  030%=      5-min Rain = 0
KGDS 092140Z 20004G10KT 25/06 A3006 RMK A01 T02510058  RH  030%=      5-min Rain = 0
KGDS 092145Z 21006KT 25/05 A3005 RMK A01 T02520054  RH  029%=      5-min Rain = 0
KGDS 092150Z 21008KT 25/06 A3005 RMK A01 T02540055  RH  028%=      5-min Rain = 0
KGDS 092155Z 20009KT 25/05 A3005 RMK A01 T02530054  RH  028%=      5-min Rain = 0
KGDS 092200Z 21008G13KT 25/05 A3005 RMK A01 T02540052  RH  028%=      5-min Rain = 0
KGDS 092205Z 20008KT 25/05 A3004 RMK A01 T02540054  RH  028%=      5-min Rain = 0
KGDS 092210Z 19009KT 25/06 A3004 RMK A01 T02540057  RH  029%=      5-min Rain = 0
KGDS 092215Z 17006KT 25/06 A3004 RMK A01 T02530061  RH  030%=      5-min Rain = 0
KGDS 092220Z 19008KT 25/06 A3004 RMK A01 T02530058  RH  029%=      5-min Rain = 0
KGDS 092225Z 20007KT 25/05 A3004 RMK A01 T02540053  RH  028%=      5-min Rain = 0
KGDS 092230Z 18007KT 25/06 A3004 RMK A01 T02530056  RH  029%=      5-min Rain = 0
KGDS 092235Z 17009KT 25/06 A3004 RMK A01 T02520056  RH  029%=      5-min Rain = 0
KGDS 092240Z 18008KT 25/05 A3004 RMK A01 T02500045  RH  027%=      5-min Rain = 0
KGDS 092245Z 19007KT 25/05 A3004 RMK A01 T02490047  RH  028%=      5-min Rain = 0
KGDS 092250Z 19007KT 25/05 A3004 RMK A01 T02470053  RH  029%=      5-min Rain = 0
KGDS 092255Z 19007KT 24/06 A3004 RMK A01 T02440059  RH  031%=      5-min Rain = 0
KGDS 092300Z 18007KT 24/07 A3004 RMK A01 T02410065  RH  033%=      5-min Rain = 0
KGDS 092305Z 18007KT 24/07 A3004 RMK A01 T02370070  RH  035%=      5-min Rain = 0
KGDS 092310Z 18008KT 23/07 A3004 RMK A01 T02340072  RH  036%=      5-min Rain = 0
KGDS 092315Z 18007KT 23/07 A3004 RMK A01 T02300074  RH  038%=      5-min Rain = 0
KGDS 092320Z 18007KT 22/08 A3004 RMK A01 T02240077  RH  040%=      5-min Rain = 0
KGDS 092325Z 18007KT 22/08 A3004 RMK A01 T02170076  RH  041%=      5-min Rain = 0
KGDS 092330Z 18008KT 21/08 A3004 RMK A01 T02130076  RH  042%=      5-min Rain = 0
KGDS 092335Z 18008KT 21/08 A3004 RMK A01 T02070077  RH  044%=      5-min Rain = 0
KGDS 092340Z 18008KT 20/08 A3004 RMK A01 T02020078  RH  046%=      5-min Rain = 0
KGDS 092345Z 18008KT 20/08 A3004 RMK A01 T01960078  RH  048%=      5-min Rain = 0
KGDS 092350Z 18008KT 19/08 A3004 RMK A01 T01920078  RH  049%=      5-min Rain = 0
KGDS 092355Z 18008KT 19/08 A3004 RMK A01 T01890078  RH  050%=      5-min Rain = 0
KGDS 100000Z 18009KT 19/08 A3004 RMK A01 T01890077  RH  050%=      5-min Rain = 0
KGDS 100005Z 18008KT 19/08 A3004 RMK A01 T01850077  RH  051%=      5-min Rain = 0
KGDS 100010Z 18008KT 18/08 A3004 RMK A01 T01790078  RH  053%=      5-min Rain = 0
KGDS 100015Z 18008KT 18/08 A3004 RMK A01 T01750078  RH  054%=      5-min Rain = 0
KGDS 100020Z 18007KT 17/08 A3004 RMK A01 T01720078  RH  055%=      5-min Rain = 0
KGDS 100025Z 18007KT 17/08 A3004 RMK A01 T01690077  RH  056%=      5-min Rain = 0
KGDS 100030Z 18007KT 17/08 A3004 RMK A01 T01670077  RH  057%=      5-min Rain = 0
KGDS 100035Z 18007KT 17/08 A3004 RMK A01 T01650076  RH  057%=      5-min Rain = 0
KGDS 100040Z 18007KT 16/08 A3004 RMK A01 T01640076  RH  057%=      5-min Rain = 0
KGDS 100045Z 18007KT 16/08 A3004 RMK A01 T01610076  RH  059%=      5-min Rain = 0
KGDS 100050Z 18007KT 16/08 A3005 RMK A01 T01600076  RH  059%=      5-min Rain = 0
KGDS 100055Z 19006KT 16/08 A3005 RMK A01 T01550075  RH  061%=      5-min Rain = 0
KGDS 100100Z 18006KT 15/07 A3005 RMK A01 T01520074  RH  061%=      5-min Rain = 0
KGDS 100105Z 18006KT 15/07 A3005 RMK A01 T01520074  RH  061%=      5-min Rain = 0
KGDS 100110Z 18006KT 15/07 A3005 RMK A01 T01510074  RH  062%=      5-min Rain = 0
KGDS 100115Z 19006KT 15/07 A3005 RMK A01 T01480074  RH  063%=      5-min Rain = 0
KGDS 100120Z 19006KT 15/07 A3005 RMK A01 T01470073  RH  063%=      5-min Rain = 0
KGDS 100125Z 19006KT 15/07 A3005 RMK A01 T01450074  RH  064%=      5-min Rain = 0
KGDS 100130Z 19006KT 14/07 A3005 RMK A01 T01420073  RH  065%=      5-min Rain = 0
KGDS 100135Z 19006KT 14/07 A3005 RMK A01 T01420073  RH  065%=      5-min Rain = 0
KGDS 100140Z 19006KT 14/07 A3005 RMK A01 T01400073  RH  066%=      5-min Rain = 0
KGDS 100145Z 19007KT 14/07 A3005 RMK A01 T01390073  RH  066%=      5-min Rain = 0
KGDS 100150Z 19008KT 14/08 A3005 RMK A01 T01370075  RH  068%=      5-min Rain = 0
KGDS 100155Z 19008KT 14/08 A3005 RMK A01 T01370077  RH  069%=      5-min Rain = 0
KGDS 100200Z 19008KT 14/08 A3005 RMK A01 T01370077  RH  069%=      5-min Rain = 0
KGDS 100205Z 19007KT 13/08 A3005 RMK A01 T01330077  RH  071%=      5-min Rain = 0
KGDS 100210Z 19008KT 13/08 A3005 RMK A01 T01340078  RH  071%=      5-min Rain = 0
KGDS 100215Z 19008KT 14/08 A3005 RMK A01 T01350079  RH  071%=      5-min Rain = 0
KGDS 100220Z 19008KT 14/08 A3004 RMK A01 T01350080  RH  071%=      5-min Rain = 0
KGDS 100225Z 19008KT 13/08 A3004 RMK A01 T01340080  RH  072%=      5-min Rain = 0
KGDS 100230Z 19008KT 13/08 A3004 RMK A01 T01340081  RH  072%=      5-min Rain = 0
KGDS 100235Z 20009KT 14/08 A3004 RMK A01 T01370083  RH  072%=      5-min Rain = 0
KGDS 100240Z 20009KT 14/09 A3004 RMK A01 T01370085  RH  073%=      5-min Rain = 0
KGDS 100245Z 20011KT 14/09 A3004 RMK A01 T01380086  RH  073%=      5-min Rain = 0
KGDS 100250Z 20012KT 14/09 A3004 RMK A01 T01420088  RH  072%=      5-min Rain = 0
KGDS 100255Z 20012KT 14/09 A3004 RMK A01 T01440089  RH  071%=      5-min Rain = 0
KGDS 100300Z 20012KT 14/09 A3004 RMK A01 T01440089  RH  072%=      5-min Rain = 0
KGDS 100305Z 20011KT 14/09 A3004 RMK A01 T01430089  RH  072%=      5-min Rain = 0
KGDS 100310Z 20011KT 14/09 A3004 RMK A01 T01420090  RH  073%=      5-min Rain = 0
KGDS 100315Z 20011KT 14/09 A3004 RMK A01 T01420090  RH  073%=      5-min Rain = 0
KGDS 100320Z 20010KT 14/09 A3005 RMK A01 T01410090  RH  074%=      5-min Rain = 0
KGDS 100325Z 20010KT 14/09 A3005 RMK A01 T01390090  RH  074%=      5-min Rain = 0
KGDS 100330Z 20009KT 14/09 A3005 RMK A01 T01380090  RH  075%=      5-min Rain = 0
KGDS 100335Z 20009KT 14/09 A3005 RMK A01 T01370090  RH  075%=      5-min Rain = 0
KGDS 100340Z 20008KT 14/09 A3005 RMK A01 T01350090  RH  077%=      5-min Rain = 0
KGDS 100345Z 20008KT 14/09 A3005 RMK A01 T01360091  RH  076%=      5-min Rain = 0
KGDS 100350Z 20009KT 14/09 A3005 RMK A01 T01370091  RH  076%=      5-min Rain = 0
KGDS 100355Z 21009KT 14/09 A3005 RMK A01 T01380091  RH  075%=      5-min Rain = 0
KGDS 100400Z 20009KT 14/09 A3005 RMK A01 T01380091  RH  076%=      5-min Rain = 0
KGDS 100405Z 20009KT 14/09 A3005 RMK A01 T01370091  RH  076%=      5-min Rain = 0
KGDS 100410Z 21008KT 13/09 A3005 RMK A01 T01320089  RH  077%=      5-min Rain = 0
KGDS 100415Z 21008KT 13/09 A3006 RMK A01 T01280088  RH  079%=      5-min Rain = 0
KGDS 100420Z 20008KT 13/09 A3005 RMK A01 T01260088  RH  080%=      5-min Rain = 0
KGDS 100425Z 20007KT 12/09 A3005 RMK A01 T01240087  RH  080%=      5-min Rain = 0
KGDS 100430Z 21007KT 12/09 A3006 RMK A01 T01210086  RH  082%=      5-min Rain = 0
KGDS 100435Z 21008KT 12/09 A3005 RMK A01 T01170085  RH  083%=      5-min Rain = 0
KGDS 100440Z 21008KT 12/09 A3005 RMK A01 T01160085  RH  084%=      5-min Rain = 0
KGDS 100445Z 22008KT 12/09 A3005 RMK A01 T01180086  RH  083%=      5-min Rain = 0
KGDS 100450Z 22009KT 12/09 A3006 RMK A01 T01200086  RH  082%=      5-min Rain = 0
KGDS 100455Z 22008KT 12/08 A3005 RMK A01 T01170084  RH  083%=      5-min Rain = 0
KGDS 100500Z 22008KT 11/08 A3005 RMK A01 T01120082  RH  084%=      5-min Rain = 0
KGDS 100505Z 22007KT 11/08 A3005 RMK A01 T01080082  RH  086%=      5-min Rain = 0
KGDS 100510Z 22007KT 11/08 A3005 RMK A01 T01060080  RH  087%=      5-min Rain = 0
KGDS 100515Z 22007KT 10/08 A3005 RMK A01 T01030079  RH  088%=      5-min Rain = 0
KGDS 100520Z 22008KT 10/08 A3005 RMK A01 T01020079  RH  088%=      5-min Rain = 0
KGDS 100525Z 22008KT 10/08 A3005 RMK A01 T01010078  RH  088%=      5-min Rain = 0
KGDS 100530Z 22008KT 10/08 A3005 RMK A01 T01000078  RH  088%=      5-min Rain = 0
KGDS 100535Z 22007KT 10/08 A3005 RMK A01 T01000078  RH  089%=      5-min Rain = 0
KGDS 100540Z 22007KT 10/08 A3004 RMK A01 T01020080  RH  089%=      5-min Rain = 0
KGDS 100545Z 22007KT 10/08 A3004 RMK A01 T01030080  RH  088%=      5-min Rain = 0
KGDS 100550Z 22007KT 10/08 A3004 RMK A01 T01000078  RH  088%=      5-min Rain = 0
KGDS 100555Z 22008KT 10/08 A3004 RMK A01 T00980077  RH  089%=      5-min Rain = 0

Page generated in 0.0256 seconds.